createdAt,value
2022-08-07T00:02:37.292Z,11.90
2022-08-07T00:05:06.059Z,11.90
2022-08-07T00:07:36.875Z,11.80
2022-08-07T00:10:27.390Z,11.80
2022-08-07T00:13:00.684Z,11.70
2022-08-07T00:15:38.253Z,11.70
2022-08-07T00:18:19.750Z,11.60
2022-08-07T00:20:53.362Z,11.60
2022-08-07T00:23:21.905Z,11.60
2022-08-07T00:25:58.929Z,11.50
2022-08-07T00:28:33.262Z,11.50
2022-08-07T00:31:05.959Z,11.50
2022-08-07T00:33:36.246Z,11.50
2022-08-07T00:36:05.946Z,11.40
2022-08-07T00:38:36.694Z,11.40
2022-08-07T00:41:09.769Z,11.40
2022-08-07T00:44:00.754Z,11.40
2022-08-07T00:46:33.132Z,11.30
2022-08-07T00:49:03.926Z,11.30
2022-08-07T00:51:57.054Z,11.20
2022-08-07T00:54:21.217Z,11.20
2022-08-07T00:56:51.242Z,11.20
2022-08-07T00:59:35.175Z,11.10
2022-08-07T01:02:09.053Z,11.10
2022-08-07T01:04:50.508Z,11.00
2022-08-07T01:07:22.444Z,11.00
2022-08-07T01:10:04.846Z,11.00
2022-08-07T01:12:36.607Z,11.00
2022-08-07T01:15:06.505Z,10.90
2022-08-07T01:17:40.494Z,10.90
2022-08-07T01:20:17.143Z,10.90
2022-08-07T01:23:00.805Z,10.90
2022-08-07T01:25:54.870Z,10.90
2022-08-07T01:28:25.229Z,10.90
2022-08-07T01:30:54.075Z,10.80
2022-08-07T01:33:23.044Z,10.80
2022-08-07T01:35:53.115Z,10.80
2022-08-07T01:38:25.797Z,10.80
2022-08-07T01:40:57.055Z,10.70
2022-08-07T01:43:26.708Z,10.70
2022-08-07T01:46:04.516Z,10.60
2022-08-07T01:48:33.753Z,10.60
2022-08-07T01:51:24.691Z,10.60
2022-08-07T01:54:09.507Z,10.60
2022-08-07T01:56:49.741Z,10.60
2022-08-07T01:59:30.876Z,10.50
2022-08-07T02:02:06.128Z,10.50
2022-08-07T02:05:15.816Z,10.40
2022-08-07T02:07:51.630Z,10.40
2022-08-07T02:10:25.914Z,10.40
2022-08-07T02:12:58.136Z,10.30
2022-08-07T02:15:29.195Z,10.30
2022-08-07T02:18:00.404Z,10.30
2022-08-07T02:20:31.475Z,10.20
2022-08-07T02:23:03.524Z,10.20
2022-08-07T02:26:31.380Z,10.20
2022-08-07T02:28:27.253Z,10.10
2022-08-07T02:30:57.508Z,10.10
2022-08-07T02:33:42.184Z,10.10
2022-08-07T02:36:29.408Z,10.10
2022-08-07T02:39:09.508Z,10.00
2022-08-07T02:41:54.511Z,10.00
2022-08-07T02:44:27.493Z,9.90
2022-08-07T02:46:57.676Z,9.90
2022-08-07T02:49:56.356Z,9.90
2022-08-07T02:52:21.455Z,9.90
2022-08-07T02:55:04.012Z,9.90
2022-08-07T02:57:38.670Z,9.90
2022-08-07T03:00:10.452Z,9.90
2022-08-07T03:02:54.228Z,9.80
2022-08-07T03:05:24.557Z,9.80
2022-08-07T03:08:07.437Z,9.80
2022-08-07T03:10:40.963Z,9.70
2022-08-07T03:13:19.270Z,9.70
2022-08-07T03:15:56.549Z,9.80
2022-08-07T03:18:34.175Z,9.80
2022-08-07T03:21:04.584Z,9.70
2022-08-07T03:24:19.559Z,9.70
2022-08-07T03:26:31.155Z,9.60
2022-08-07T03:29:03.506Z,9.60
2022-08-07T03:31:43.130Z,9.50
2022-08-07T03:34:18.631Z,9.50
2022-08-07T03:36:53.361Z,9.50
2022-08-07T03:39:46.249Z,9.40
2022-08-07T03:42:14.298Z,9.40
2022-08-07T03:44:47.290Z,9.40
2022-08-07T03:47:29.414Z,9.40
2022-08-07T03:50:11.675Z,9.40
2022-08-07T03:52:42.335Z,9.30
2022-08-07T03:55:11.294Z,9.30
2022-08-07T03:58:33.366Z,9.30
2022-08-07T04:00:33.620Z,9.30
2022-08-07T04:03:05.037Z,9.30
2022-08-07T04:05:40.578Z,9.30
2022-08-07T04:08:12.606Z,9.30
2022-08-07T04:10:53.879Z,9.30
2022-08-07T04:14:10.900Z,9.30
2022-08-07T04:16:31.576Z,9.30
2022-08-07T04:19:03.864Z,9.30
2022-08-07T04:21:33.709Z,9.30
2022-08-07T04:24:07.479Z,9.30
2022-08-07T04:26:36.587Z,9.40
2022-08-07T04:29:05.067Z,9.30
2022-08-07T04:31:39.043Z,9.40
2022-08-07T04:34:32.982Z,9.40
2022-08-07T04:37:02.167Z,9.40
2022-08-07T04:39:36.744Z,9.50
2022-08-07T04:42:13.426Z,9.50
2022-08-07T04:45:02.645Z,9.60
2022-08-07T04:48:00.461Z,9.60
2022-08-07T04:50:38.754Z,9.70
2022-08-07T04:53:16.427Z,9.80
2022-08-07T04:58:12.435Z,9.80
2022-08-07T04:59:17.508Z,9.90
2022-08-07T05:01:50.439Z,10.00
2022-08-07T05:04:29.466Z,10.10
2022-08-07T05:07:19.596Z,10.20
2022-08-07T05:09:57.206Z,10.30
2022-08-07T05:12:33.186Z,10.40
2022-08-07T05:15:23.092Z,10.60
2022-08-07T05:17:58.246Z,10.80
2022-08-07T05:20:34.966Z,11.00
2022-08-07T05:23:15.648Z,11.20
2022-08-07T05:26:10.520Z,11.50
2022-08-07T05:28:36.715Z,11.80
2022-08-07T05:31:12.762Z,12.20
2022-08-07T05:34:01.356Z,12.50
2022-08-07T05:36:36.115Z,12.80
2022-08-07T05:40:06.971Z,13.10
2022-08-07T05:42:01.176Z,13.40
2022-08-07T05:44:35.135Z,13.60
2022-08-07T05:47:18.271Z,13.90
2022-08-07T05:49:50.125Z,14.00
2022-08-07T05:52:32.468Z,14.20
2022-08-07T05:55:07.255Z,14.50
2022-08-07T05:57:42.005Z,14.70
2022-08-07T06:00:16.617Z,15.00
2022-08-07T06:02:50.672Z,15.20
2022-08-07T06:05:28.212Z,15.40
2022-08-07T06:08:09.049Z,15.70
2022-08-07T06:10:52.074Z,16.00
2022-08-07T06:14:10.633Z,16.30
2022-08-07T06:16:14.274Z,16.60
2022-08-07T06:18:43.522Z,16.90
2022-08-07T06:22:16.520Z,17.20
2022-08-07T06:24:45.642Z,17.40
2022-08-07T06:27:00.015Z,17.70
2022-08-07T06:29:34.112Z,17.90
2022-08-07T06:32:02.677Z,18.10
2022-08-07T06:34:33.095Z,18.30
2022-08-07T06:37:02.433Z,18.50
2022-08-07T06:40:16.902Z,19.00
2022-08-07T06:42:35.117Z,19.20
2022-08-07T06:45:05.089Z,19.70
2022-08-07T06:47:48.044Z,20.10
2022-08-07T06:50:22.603Z,20.60
2022-08-07T06:52:56.534Z,20.90
2022-08-07T06:55:53.490Z,21.20
2022-08-07T06:58:21.463Z,21.40
2022-08-07T07:00:54.229Z,21.30
2022-08-07T07:03:40.124Z,21.60
2022-08-07T07:06:11.874Z,21.90
2022-08-07T07:08:46.740Z,22.20
2022-08-07T07:12:08.748Z,22.30
2022-08-07T07:14:08.526Z,22.20
2022-08-07T07:16:49.993Z,22.50
2022-08-07T07:19:55.717Z,22.40
2022-08-07T07:22:35.955Z,22.50
2022-08-07T07:25:14.024Z,22.40
2022-08-07T07:28:03.154Z,22.40
2022-08-07T07:30:38.398Z,22.30
2022-08-07T07:33:11.377Z,22.40
2022-08-07T07:35:44.008Z,22.50
2022-08-07T07:38:34.988Z,22.70
2022-08-07T07:41:08.562Z,23.00
2022-08-07T07:44:14.297Z,23.00
2022-08-07T07:46:37.546Z,22.90
2022-08-07T07:50:34.215Z,23.10
2022-08-07T07:52:16.125Z,23.30
2022-08-07T07:54:51.390Z,23.50
2022-08-07T07:57:50.388Z,23.60
2022-08-07T08:00:29.118Z,23.80
2022-08-07T08:03:05.624Z,23.90
2022-08-07T08:05:50.920Z,24.00
2022-08-07T08:08:35.087Z,23.30
2022-08-07T08:11:13.556Z,23.50
2022-08-07T08:13:53.332Z,23.80
2022-08-07T08:16:31.189Z,24.20
2022-08-07T08:19:17.403Z,24.50
2022-08-07T08:22:09.848Z,24.60
2022-08-07T08:25:09.431Z,24.70
2022-08-07T08:27:56.820Z,24.90
2022-08-07T08:30:30.272Z,25.10
2022-08-07T08:33:10.557Z,24.90
2022-08-07T08:35:50.058Z,25.00
2022-08-07T08:38:22.054Z,24.70
2022-08-07T08:41:03.796Z,24.80
2022-08-07T08:43:42.311Z,25.40
2022-08-07T08:46:20.333Z,25.90
2022-08-07T08:48:58.685Z,26.60
2022-08-07T08:52:12.533Z,27.20
2022-08-07T08:54:27.655Z,27.20
2022-08-07T08:57:00.344Z,27.30
2022-08-07T08:59:42.079Z,27.10
2022-08-07T09:02:34.702Z,27.20
2022-08-07T09:05:26.421Z,27.30
2022-08-07T09:08:12.286Z,26.80
2022-08-07T09:10:53.184Z,27.00
2022-08-07T09:13:37.572Z,26.80
2022-08-07T09:16:20.045Z,27.00
2022-08-07T09:19:51.694Z,27.30
2022-08-07T09:24:28.255Z,27.60
2022-08-07T09:25:14.687Z,28.10
2022-08-07T09:28:00.922Z,28.30
2022-08-07T09:30:44.151Z,28.40
2022-08-07T09:33:53.103Z,28.50
2022-08-07T09:36:33.526Z,28.60
2022-08-07T09:39:54.149Z,28.80
2022-08-07T09:42:33.398Z,28.60
2022-08-07T09:47:24.304Z,28.90
2022-08-07T09:48:19.129Z,29.20
2022-08-07T09:51:01.072Z,29.00
2022-08-07T09:53:41.256Z,28.90
2022-08-07T09:56:39.206Z,29.00
2022-08-07T09:59:46.275Z,28.90
2022-08-07T10:02:55.343Z,28.20
2022-08-07T10:06:11.988Z,28.30
2022-08-07T10:08:57.176Z,28.40
2022-08-07T10:12:01.427Z,28.40
2022-08-07T10:14:58.321Z,28.90
2022-08-07T10:18:01.572Z,29.30
2022-08-07T10:20:45.467Z,29.10
2022-08-07T10:24:05.252Z,29.00
2022-08-07T10:26:45.125Z,29.40
2022-08-07T10:29:53.014Z,29.60
2022-08-07T10:32:59.806Z,29.70
2022-08-07T10:35:53.668Z,30.00
2022-08-07T10:38:48.928Z,30.20
2022-08-07T10:41:46.431Z,30.10
2022-08-07T10:44:37.970Z,29.10
2022-08-07T10:47:31.160Z,27.90
2022-08-07T10:50:16.021Z,28.40
2022-08-07T10:52:56.703Z,28.80
2022-08-07T10:55:38.646Z,29.20
2022-08-07T10:58:36.476Z,29.10
2022-08-07T11:01:23.962Z,28.60
2022-08-07T11:04:17.061Z,28.00
2022-08-07T11:07:04.383Z,27.70
2022-08-07T11:10:10.062Z,27.60
2022-08-07T11:12:49.219Z,28.00
2022-08-07T11:15:35.565Z,28.60
2022-08-07T11:18:15.955Z,28.60
2022-08-07T11:20:52.813Z,29.10
2022-08-07T11:23:36.429Z,29.30
2022-08-07T11:26:13.439Z,29.70
2022-08-07T11:28:53.471Z,29.10
2022-08-07T11:31:35.335Z,29.20
2022-08-07T11:34:17.284Z,29.20
2022-08-07T11:36:57.845Z,29.30
2022-08-07T11:40:00.138Z,29.70
2022-08-07T11:42:42.220Z,30.20
2022-08-07T11:45:23.744Z,30.30
2022-08-07T11:48:29.825Z,30.10
2022-08-07T11:51:41.770Z,30.20
2022-08-07T11:54:22.137Z,30.40
2022-08-07T11:57:06.989Z,30.70
2022-08-07T12:00:19.127Z,30.90
2022-08-07T12:03:44.588Z,31.20
2022-08-07T12:06:39.851Z,31.10
2022-08-07T12:09:23.754Z,31.00
2022-08-07T12:12:10.281Z,30.60
2022-08-07T12:14:55.450Z,30.20
2022-08-07T12:17:35.796Z,30.70
2022-08-07T12:20:18.497Z,30.80
2022-08-07T12:23:18.001Z,30.10
2022-08-07T12:26:23.203Z,29.10
2022-08-07T12:29:02.780Z,27.90
2022-08-07T12:32:02.278Z,27.50
2022-08-07T12:34:31.182Z,27.30
2022-08-07T12:37:02.043Z,27.40
2022-08-07T12:39:50.714Z,27.50
2022-08-07T12:42:27.737Z,27.80
2022-08-07T12:44:59.915Z,27.50
2022-08-07T12:47:41.644Z,27.50
2022-08-07T12:50:38.993Z,27.80
2022-08-07T12:53:18.235Z,27.90
2022-08-07T12:56:03.533Z,28.20
2022-08-07T12:58:39.454Z,28.20
2022-08-07T13:01:18.386Z,28.40
2022-08-07T13:04:02.597Z,28.30
2022-08-07T13:07:10.189Z,28.50
2022-08-07T13:10:37.348Z,28.90
2022-08-07T13:13:47.007Z,29.40
2022-08-07T13:16:28.346Z,30.10
2022-08-07T13:19:04.328Z,30.50
2022-08-07T13:21:58.929Z,30.40
2022-08-07T13:24:54.066Z,30.80
2022-08-07T13:28:06.261Z,30.90
2022-08-07T13:30:41.165Z,31.10
2022-08-07T13:34:34.000Z,31.40
2022-08-07T13:36:17.749Z,30.10
2022-08-07T13:38:54.385Z,30.10
2022-08-07T13:41:33.385Z,30.60
2022-08-07T13:44:05.150Z,30.80
2022-08-07T13:46:49.635Z,31.10
2022-08-07T13:50:35.435Z,31.00
2022-08-07T13:52:32.194Z,31.10
2022-08-07T13:55:00.933Z,31.50
2022-08-07T13:57:37.627Z,31.30
2022-08-07T14:00:26.019Z,31.00
2022-08-07T14:02:59.065Z,30.90
2022-08-07T14:05:37.455Z,31.30
2022-08-07T14:08:08.865Z,31.50
2022-08-07T14:10:42.338Z,31.80
2022-08-07T14:13:17.921Z,30.60
2022-08-07T14:15:53.054Z,31.00
2022-08-07T14:18:32.845Z,31.00
2022-08-07T14:21:20.759Z,31.30
2022-08-07T14:24:14.154Z,31.20
2022-08-07T14:26:50.245Z,31.60
2022-08-07T14:30:05.724Z,31.40
2022-08-07T14:32:15.142Z,31.80
2022-08-07T14:34:48.175Z,32.20
2022-08-07T14:37:19.475Z,32.60
2022-08-07T14:40:19.724Z,32.90
2022-08-07T14:43:00.819Z,33.30
2022-08-07T14:45:51.237Z,33.60
2022-08-07T14:48:27.631Z,33.50
2022-08-07T14:51:00.260Z,32.50
2022-08-07T14:56:29.871Z,31.70
2022-08-07T14:59:02.886Z,31.30
2022-08-07T15:01:42.710Z,31.00
2022-08-07T15:04:25.256Z,31.60
2022-08-07T15:06:55.386Z,32.20
2022-08-07T15:09:58.156Z,32.40
2022-08-07T15:12:25.538Z,32.80
2022-08-07T15:14:57.937Z,33.40
2022-08-07T15:17:32.779Z,33.00
2022-08-07T15:20:32.924Z,32.90
2022-08-07T15:23:20.236Z,33.10
2022-08-07T15:25:56.145Z,33.30
2022-08-07T15:28:38.594Z,32.90
2022-08-07T15:32:00.726Z,32.80
2022-08-07T15:34:04.946Z,33.10
2022-08-07T15:37:02.925Z,33.10
2022-08-07T15:39:56.250Z,33.10
2022-08-07T15:42:43.287Z,33.10
2022-08-07T15:45:19.376Z,32.80
2022-08-07T15:48:00.977Z,32.90
2022-08-07T15:51:01.343Z,32.70
2022-08-07T15:53:52.286Z,32.50
2022-08-07T15:56:18.119Z,32.60
2022-08-07T15:58:52.490Z,32.10
2022-08-07T16:01:38.351Z,31.90
2022-08-07T16:04:14.704Z,31.60
2022-08-07T16:06:50.124Z,31.10
2022-08-07T16:09:24.128Z,30.70
2022-08-07T16:12:32.037Z,30.60
2022-08-07T16:15:51.665Z,30.20
2022-08-07T16:18:49.370Z,30.00
2022-08-07T16:21:44.197Z,29.80
2022-08-07T16:24:02.449Z,29.40
2022-08-07T16:26:58.728Z,29.10
2022-08-07T16:30:10.625Z,29.00
2022-08-07T16:32:46.705Z,28.80
2022-08-07T16:35:56.636Z,28.60
2022-08-07T16:39:00.024Z,28.60
2022-08-07T16:41:54.199Z,28.30
2022-08-07T16:45:15.217Z,28.10
2022-08-07T16:49:04.360Z,27.80
2022-08-07T16:52:01.910Z,27.60
2022-08-07T16:54:54.221Z,27.30
2022-08-07T16:58:02.754Z,27.20
2022-08-07T17:00:29.683Z,27.10
2022-08-07T17:03:17.877Z,27.00
2022-08-07T17:06:18.901Z,26.90
2022-08-07T17:09:10.694Z,26.60
2022-08-07T17:12:04.476Z,26.50
2022-08-07T17:14:46.305Z,26.50
2022-08-07T17:17:44.023Z,26.30
2022-08-07T17:20:30.663Z,26.20
2022-08-07T17:23:08.550Z,26.20
2022-08-07T17:25:52.706Z,26.10
2022-08-07T17:28:32.484Z,26.00
2022-08-07T17:31:16.619Z,25.90
2022-08-07T17:34:15.314Z,25.80
2022-08-07T17:36:57.507Z,25.70
2022-08-07T17:39:58.259Z,25.60
2022-08-07T17:42:59.123Z,25.50
2022-08-07T17:45:35.006Z,25.40
2022-08-07T17:48:10.429Z,25.40
2022-08-07T17:50:56.449Z,25.40
2022-08-07T17:54:00.934Z,25.30
2022-08-07T17:56:33.213Z,25.30
2022-08-07T17:59:09.947Z,25.10
2022-08-07T18:01:51.615Z,25.00
2022-08-07T18:04:36.243Z,24.90
2022-08-07T18:07:34.323Z,24.80
2022-08-07T18:10:28.640Z,24.60
2022-08-07T18:13:16.655Z,24.50
2022-08-07T18:16:04.773Z,24.40
2022-08-07T18:21:03.366Z,24.30
2022-08-07T18:21:57.911Z,24.20
2022-08-07T18:24:34.014Z,24.00
2022-08-07T18:27:39.035Z,23.90
2022-08-07T18:30:31.266Z,23.80
2022-08-07T18:33:37.844Z,23.70
2022-08-07T18:36:18.300Z,23.50
2022-08-07T18:40:05.251Z,23.40
2022-08-07T18:42:16.868Z,23.20
2022-08-07T18:45:44.993Z,23.00
2022-08-07T18:48:01.124Z,22.90
2022-08-07T18:50:58.626Z,22.70
2022-08-07T18:53:40.123Z,22.60
2022-08-07T18:56:20.825Z,22.50
2022-08-07T18:59:47.115Z,22.30
2022-08-07T19:02:32.263Z,22.20
2022-08-07T19:05:10.761Z,22.00
2022-08-07T19:07:58.665Z,21.90
2022-08-07T19:10:49.968Z,21.80
2022-08-07T19:13:27.455Z,21.70
2022-08-07T19:17:06.465Z,21.60
2022-08-07T19:19:01.696Z,21.50
2022-08-07T19:21:44.350Z,21.40
2022-08-07T19:24:30.989Z,21.30
2022-08-07T19:28:57.819Z,21.10
2022-08-07T19:31:04.542Z,21.00
2022-08-07T19:32:51.280Z,20.90
2022-08-07T19:35:25.396Z,20.80
2022-08-07T19:37:59.646Z,20.70
2022-08-07T19:40:34.626Z,20.60
2022-08-07T19:43:10.616Z,20.60
2022-08-07T19:46:05.566Z,20.50
2022-08-07T19:48:42.707Z,20.40
2022-08-07T19:51:19.809Z,20.30
2022-08-07T19:54:32.316Z,20.20
2022-08-07T19:57:59.983Z,20.00
2022-08-07T19:59:42.155Z,19.90
2022-08-07T20:02:19.835Z,19.70
2022-08-07T20:05:00.260Z,19.60
2022-08-07T20:07:46.340Z,19.50
2022-08-07T20:10:37.974Z,19.40
2022-08-07T20:13:22.351Z,19.20
2022-08-07T20:15:57.941Z,19.00
2022-08-07T20:18:33.721Z,18.90
2022-08-07T20:21:21.571Z,18.80
2022-08-07T20:23:57.982Z,18.80
2022-08-07T20:26:38.885Z,18.70
2022-08-07T20:29:48.179Z,18.60
2022-08-07T20:32:11.494Z,18.60
2022-08-07T20:34:52.763Z,18.50
2022-08-07T20:37:29.465Z,18.40
2022-08-07T20:40:05.017Z,18.30
2022-08-07T20:42:56.313Z,18.30
2022-08-07T20:45:32.998Z,18.20
2022-08-07T20:48:28.550Z,18.10
2022-08-07T20:51:01.452Z,17.90
2022-08-07T20:54:02.069Z,17.80
2022-08-07T20:56:26.859Z,17.70
2022-08-07T20:59:00.026Z,17.60
2022-08-07T21:01:45.697Z,17.50
2022-08-07T21:04:23.952Z,17.40
2022-08-07T21:06:56.849Z,17.40
2022-08-07T21:09:35.377Z,17.30
2022-08-07T21:12:26.127Z,17.20
2022-08-07T21:15:00.851Z,17.20
2022-08-07T21:18:17.310Z,17.10
2022-08-07T21:20:29.763Z,17.00
2022-08-07T21:23:08.516Z,16.90
2022-08-07T21:25:58.668Z,16.80
2022-08-07T21:28:48.074Z,16.70
2022-08-07T21:31:49.998Z,16.60
2022-08-07T21:34:26.747Z,16.60
2022-08-07T21:37:06.434Z,16.50
2022-08-07T21:39:51.754Z,16.40
2022-08-07T21:42:46.180Z,16.40
2022-08-07T21:46:04.906Z,16.30
2022-08-07T21:48:27.748Z,16.20
2022-08-07T21:51:19.770Z,16.10
2022-08-07T21:53:54.606Z,16.00
2022-08-07T21:56:36.168Z,16.00
2022-08-07T21:59:18.464Z,15.90
2022-08-07T22:02:10.905Z,15.80
2022-08-07T22:04:51.232Z,15.80
2022-08-07T22:07:35.692Z,15.70
2022-08-07T22:10:20.667Z,15.70
2022-08-07T22:12:56.762Z,15.60
2022-08-07T22:16:44.357Z,15.50
2022-08-07T22:18:24.935Z,15.40
2022-08-07T22:20:59.739Z,15.40
2022-08-07T22:23:40.222Z,15.30
2022-08-07T22:26:19.939Z,15.30
2022-08-07T22:28:56.253Z,15.20
2022-08-07T22:31:59.408Z,15.10
2022-08-07T22:34:35.503Z,15.10
2022-08-07T22:37:14.870Z,15.00
2022-08-07T22:39:53.096Z,15.00
2022-08-07T22:42:54.034Z,14.90
2022-08-07T22:46:04.450Z,14.90
2022-08-07T22:48:13.577Z,14.80
2022-08-07T22:51:19.284Z,14.70
2022-08-07T22:54:05.222Z,14.60
2022-08-07T22:57:02.083Z,14.60
2022-08-07T22:59:49.904Z,14.50
2022-08-07T23:02:41.694Z,14.40
2022-08-07T23:06:10.341Z,14.40
2022-08-07T23:08:51.534Z,14.30
2022-08-07T23:11:44.246Z,14.30
2022-08-07T23:14:32.599Z,14.20
2022-08-07T23:17:33.680Z,14.20
2022-08-07T23:20:51.071Z,14.10
2022-08-07T23:24:06.086Z,14.10
2022-08-07T23:26:41.095Z,14.00
2022-08-07T23:30:37.608Z,14.00
2022-08-07T23:34:34.963Z,13.90
2022-08-07T23:35:48.257Z,13.80
2022-08-07T23:38:36.948Z,13.80
2022-08-07T23:41:33.621Z,13.70
2022-08-07T23:44:13.036Z,13.60
2022-08-07T23:47:10.814Z,13.60
2022-08-07T23:50:16.614Z,13.60
2022-08-07T23:53:17.190Z,13.50
2022-08-07T23:55:53.635Z,13.40
2022-08-07T23:58:37.398Z,13.40
